sensor_id;sensor_type;location;lat;lon;timestamp;P1;durP1;ratioP1;P2;durP2;ratioP2
65691;SDS011;52411;52.716;6.696;2023-10-09T00:04:13;11.43;;;6.18;;
65691;SDS011;52411;52.716;6.696;2023-10-09T00:06:41;12.15;;;6.43;;
65691;SDS011;52411;52.716;6.696;2023-10-09T00:13:02;14.95;;;7.28;;
65691;SDS011;52411;52.716;6.696;2023-10-09T00:15:28;13.63;;;6.72;;
65691;SDS011;52411;52.716;6.696;2023-10-09T00:17:58;13.35;;;6.40;;
65691;SDS011;52411;52.716;6.696;2023-10-09T00:20:23;15.45;;;7.05;;
65691;SDS011;52411;52.716;6.696;2023-10-09T00:23:02;13.32;;;6.90;;
65691;SDS011;52411;52.716;6.696;2023-10-09T00:25:29;12.85;;;7.63;;
65691;SDS011;52411;52.716;6.696;2023-10-09T00:27:55;17.73;;;7.97;;
65691;SDS011;52411;52.716;6.696;2023-10-09T00:30:24;14.68;;;7.65;;
65691;SDS011;52411;52.716;6.696;2023-10-09T00:32:54;14.48;;;7.35;;
65691;SDS011;52411;52.716;6.696;2023-10-09T00:35:23;15.32;;;7.82;;
65691;SDS011;52411;52.716;6.696;2023-10-09T00:38:07;18.15;;;8.65;;
65691;SDS011;52411;52.716;6.696;2023-10-09T00:40:44;17.58;;;9.15;;
65691;SDS011;52411;52.716;6.696;2023-10-09T00:43:21;19.52;;;9.68;;
65691;SDS011;52411;52.716;6.696;2023-10-09T00:45:53;16.50;;;9.20;;
65691;SDS011;52411;52.716;6.696;2023-10-09T00:48:19;20.05;;;8.75;;
65691;SDS011;52411;52.716;6.696;2023-10-09T00:50:56;19.08;;;9.65;;
65691;SDS011;52411;52.716;6.696;2023-10-09T00:53:26;19.35;;;9.25;;
65691;SDS011;52411;52.716;6.696;2023-10-09T00:55:59;20.13;;;9.70;;
65691;SDS011;52411;52.716;6.696;2023-10-09T00:58:29;19.17;;;9.50;;
65691;SDS011;52411;52.716;6.696;2023-10-09T01:01:00;21.30;;;10.20;;
65691;SDS011;52411;52.716;6.696;2023-10-09T01:03:29;19.52;;;10.05;;
65691;SDS011;52411;52.716;6.696;2023-10-09T01:05:59;25.67;;;10.15;;
65691;SDS011;52411;52.716;6.696;2023-10-09T01:08:37;25.00;;;10.65;;
65691;SDS011;52411;52.716;6.696;2023-10-09T01:11:07;22.00;;;10.60;;
65691;SDS011;52411;52.716;6.696;2023-10-09T01:13:43;20.38;;;9.88;;
65691;SDS011;52411;52.716;6.696;2023-10-09T01:16:13;22.27;;;10.93;;
65691;SDS011;52411;52.716;6.696;2023-10-09T01:18:43;18.95;;;10.15;;
65691;SDS011;52411;52.716;6.696;2023-10-09T01:21:10;24.45;;;10.75;;
65691;SDS011;52411;52.716;6.696;2023-10-09T01:23:43;25.42;;;10.77;;
65691;SDS011;52411;52.716;6.696;2023-10-09T01:26:32;26.05;;;11.30;;
65691;SDS011;52411;52.716;6.696;2023-10-09T01:29:25;23.95;;;11.60;;
65691;SDS011;52411;52.716;6.696;2023-10-09T01:31:55;24.00;;;11.75;;
65691;SDS011;52411;52.716;6.696;2023-10-09T01:34:28;23.35;;;11.60;;
65691;SDS011;52411;52.716;6.696;2023-10-09T01:37:07;23.05;;;10.90;;
65691;SDS011;52411;52.716;6.696;2023-10-09T01:39:42;22.73;;;10.95;;
65691;SDS011;52411;52.716;6.696;2023-10-09T01:42:10;26.30;;;12.18;;
65691;SDS011;52411;52.716;6.696;2023-10-09T01:44:35;27.63;;;12.40;;
65691;SDS011;52411;52.716;6.696;2023-10-09T01:47:08;25.50;;;12.40;;
65691;SDS011;52411;52.716;6.696;2023-10-09T01:49:38;22.38;;;12.05;;
65691;SDS011;52411;52.716;6.696;2023-10-09T01:52:08;24.02;;;13.18;;
65691;SDS011;52411;52.716;6.696;2023-10-09T01:54:38;29.98;;;13.45;;
65691;SDS011;52411;52.716;6.696;2023-10-09T01:57:06;26.23;;;13.40;;
65691;SDS011;52411;52.716;6.696;2023-10-09T01:59:40;32.05;;;14.73;;
65691;SDS011;52411;52.716;6.696;2023-10-09T02:02:15;32.67;;;14.75;;
65691;SDS011;52411;52.716;6.696;2023-10-09T02:05:04;31.35;;;14.90;;
65691;SDS011;52411;52.716;6.696;2023-10-09T02:07:34;29.98;;;14.57;;
65691;SDS011;52411;52.716;6.696;2023-10-09T02:10:06;30.40;;;14.80;;
65691;SDS011;52411;52.716;6.696;2023-10-09T02:15:55;30.38;;;15.65;;
65691;SDS011;52411;52.716;6.696;2023-10-09T02:18:23;36.00;;;16.80;;
65691;SDS011;52411;52.716;6.696;2023-10-09T02:23:31;34.80;;;15.77;;
65691;SDS011;52411;52.716;6.696;2023-10-09T02:26:17;34.33;;;16.30;;
65691;SDS011;52411;52.716;6.696;2023-10-09T02:29:03;41.95;;;17.35;;
65691;SDS011;52411;52.716;6.696;2023-10-09T02:31:40;39.22;;;16.77;;
65691;SDS011;52411;52.716;6.696;2023-10-09T02:34:08;35.28;;;17.33;;
65691;SDS011;52411;52.716;6.696;2023-10-09T02:36:35;41.42;;;18.30;;
65691;SDS011;52411;52.716;6.696;2023-10-09T02:39:11;43.70;;;17.92;;
65691;SDS011;52411;52.716;6.696;2023-10-09T02:41:55;43.45;;;18.35;;
65691;SDS011;52411;52.716;6.696;2023-10-09T02:44:44;35.80;;;18.48;;
65691;SDS011;52411;52.716;6.696;2023-10-09T02:47:15;41.70;;;18.20;;
65691;SDS011;52411;52.716;6.696;2023-10-09T02:49:54;44.53;;;19.00;;
65691;SDS011;52411;52.716;6.696;2023-10-09T02:52:25;37.78;;;18.60;;
65691;SDS011;52411;52.716;6.696;2023-10-09T02:54:57;41.38;;;19.42;;
65691;SDS011;52411;52.716;6.696;2023-10-09T02:57:32;42.30;;;19.98;;
65691;SDS011;52411;52.716;6.696;2023-10-09T03:00:02;41.33;;;19.67;;
65691;SDS011;52411;52.716;6.696;2023-10-09T03:02:34;44.25;;;19.85;;
65691;SDS011;52411;52.716;6.696;2023-10-09T03:05:05;44.92;;;20.15;;
65691;SDS011;52411;52.716;6.696;2023-10-09T03:07:31;45.92;;;21.13;;
65691;SDS011;52411;52.716;6.696;2023-10-09T03:09:59;44.53;;;21.10;;
65691;SDS011;52411;52.716;6.696;2023-10-09T03:12:24;46.25;;;20.45;;
65691;SDS011;52411;52.716;6.696;2023-10-09T03:14:52;45.78;;;21.33;;
65691;SDS011;52411;52.716;6.696;2023-10-09T03:17:19;46.35;;;21.63;;
65691;SDS011;52411;52.716;6.696;2023-10-09T03:19:45;50.13;;;22.05;;
65691;SDS011;52411;52.716;6.696;2023-10-09T03:22:12;52.05;;;21.38;;
65691;SDS011;52411;52.716;6.696;2023-10-09T03:24:40;51.55;;;22.17;;
65691;SDS011;52411;52.716;6.696;2023-10-09T03:27:10;56.50;;;22.58;;
65691;SDS011;52411;52.716;6.696;2023-10-09T03:29:36;46.80;;;21.95;;
65691;SDS011;52411;52.716;6.696;2023-10-09T03:32:02;49.60;;;22.00;;
65691;SDS011;52411;52.716;6.696;2023-10-09T03:34:28;46.17;;;21.67;;
65691;SDS011;52411;52.716;6.696;2023-10-09T03:36:56;47.70;;;22.15;;
65691;SDS011;52411;52.716;6.696;2023-10-09T03:39:31;48.05;;;23.27;;
65691;SDS011;52411;52.716;6.696;2023-10-09T03:42:12;52.25;;;21.98;;
65691;SDS011;52411;52.716;6.696;2023-10-09T03:49:55;52.25;;;22.35;;
65691;SDS011;52411;52.716;6.696;2023-10-09T03:52:21;54.00;;;22.98;;
65691;SDS011;52411;52.716;6.696;2023-10-09T03:54:50;51.95;;;22.45;;
65691;SDS011;52411;52.716;6.696;2023-10-09T03:57:16;46.85;;;22.30;;
65691;SDS011;52411;52.716;6.696;2023-10-09T04:09:42;52.42;;;22.70;;
65691;SDS011;52411;52.716;6.696;2023-10-09T04:12:12;54.40;;;23.58;;
65691;SDS011;52411;52.716;6.696;2023-10-09T04:14:45;57.45;;;24.65;;
65691;SDS011;52411;52.716;6.696;2023-10-09T04:17:22;50.65;;;23.70;;
65691;SDS011;52411;52.716;6.696;2023-10-09T04:19:48;58.08;;;25.15;;
65691;SDS011;52411;52.716;6.696;2023-10-09T04:22:34;53.95;;;24.27;;
65691;SDS011;52411;52.716;6.696;2023-10-09T04:25:08;59.97;;;25.17;;
65691;SDS011;52411;52.716;6.696;2023-10-09T04:27:40;52.35;;;24.08;;
65691;SDS011;52411;52.716;6.696;2023-10-09T04:30:06;64.47;;;25.88;;
65691;SDS011;52411;52.716;6.696;2023-10-09T04:32:32;52.42;;;23.88;;
65691;SDS011;52411;52.716;6.696;2023-10-09T04:34:59;56.95;;;25.33;;
65691;SDS011;52411;52.716;6.696;2023-10-09T04:37:44;56.97;;;24.70;;
65691;SDS011;52411;52.716;6.696;2023-10-09T04:40:17;58.30;;;25.85;;
65691;SDS011;52411;52.716;6.696;2023-10-09T04:43:01;54.97;;;25.98;;
65691;SDS011;52411;52.716;6.696;2023-10-09T04:45:31;61.35;;;26.83;;
65691;SDS011;52411;52.716;6.696;2023-10-09T04:48:19;58.08;;;24.67;;
65691;SDS011;52411;52.716;6.696;2023-10-09T04:51:05;61.28;;;26.98;;
65691;SDS011;52411;52.716;6.696;2023-10-09T04:53:47;62.88;;;25.85;;
65691;SDS011;52411;52.716;6.696;2023-10-09T04:56:25;56.55;;;25.85;;
65691;SDS011;52411;52.716;6.696;2023-10-09T04:58:50;58.90;;;26.35;;
65691;SDS011;52411;52.716;6.696;2023-10-09T05:01:28;55.80;;;26.17;;
65691;SDS011;52411;52.716;6.696;2023-10-09T05:04:11;63.42;;;27.48;;
65691;SDS011;52411;52.716;6.696;2023-10-09T05:07:04;58.90;;;26.67;;
65691;SDS011;52411;52.716;6.696;2023-10-09T05:09:48;59.60;;;27.45;;
65691;SDS011;52411;52.716;6.696;2023-10-09T05:12:21;63.47;;;27.63;;
65691;SDS011;52411;52.716;6.696;2023-10-09T05:14:51;58.00;;;26.40;;
65691;SDS011;52411;52.716;6.696;2023-10-09T05:25:24;60.70;;;26.50;;
65691;SDS011;52411;52.716;6.696;2023-10-09T05:28:09;66.75;;;26.50;;
65691;SDS011;52411;52.716;6.696;2023-10-09T05:30:55;61.20;;;25.77;;
65691;SDS011;52411;52.716;6.696;2023-10-09T05:33:32;60.97;;;28.67;;
65691;SDS011;52411;52.716;6.696;2023-10-09T05:48:29;56.90;;;25.55;;
65691;SDS011;52411;52.716;6.696;2023-10-09T05:51:04;56.80;;;28.05;;
65691;SDS011;52411;52.716;6.696;2023-10-09T05:53:37;54.95;;;25.42;;
65691;SDS011;52411;52.716;6.696;2023-10-09T05:56:09;53.55;;;24.65;;
65691;SDS011;52411;52.716;6.696;2023-10-09T05:58:53;50.92;;;24.52;;
65691;SDS011;52411;52.716;6.696;2023-10-09T06:01:37;50.08;;;23.95;;
65691;SDS011;52411;52.716;6.696;2023-10-09T06:04:21;49.28;;;23.40;;
65691;SDS011;52411;52.716;6.696;2023-10-09T06:06:59;51.38;;;22.98;;
65691;SDS011;52411;52.716;6.696;2023-10-09T06:09:36;50.47;;;23.48;;
65691;SDS011;52411;52.716;6.696;2023-10-09T06:12:20;50.08;;;23.92;;
65691;SDS011;52411;52.716;6.696;2023-10-09T06:14:58;45.42;;;22.85;;
65691;SDS011;52411;52.716;6.696;2023-10-09T06:17:45;46.55;;;22.05;;
65691;SDS011;52411;52.716;6.696;2023-10-09T06:20:15;43.53;;;21.42;;
65691;SDS011;52411;52.716;6.696;2023-10-09T06:23:00;42.20;;;21.17;;
65691;SDS011;52411;52.716;6.696;2023-10-09T06:25:40;42.23;;;21.60;;
65691;SDS011;52411;52.716;6.696;2023-10-09T06:28:16;44.13;;;21.33;;
65691;SDS011;52411;52.716;6.696;2023-10-09T06:30:44;44.92;;;21.85;;
65691;SDS011;52411;52.716;6.696;2023-10-09T06:33:12;44.38;;;21.05;;
65691;SDS011;52411;52.716;6.696;2023-10-09T06:35:54;41.45;;;19.70;;
65691;SDS011;52411;52.716;6.696;2023-10-09T06:38:20;41.88;;;19.38;;
65691;SDS011;52411;52.716;6.696;2023-10-09T06:40:49;40.90;;;20.00;;
65691;SDS011;52411;52.716;6.696;2023-10-09T06:43:42;35.28;;;18.50;;
65691;SDS011;52411;52.716;6.696;2023-10-09T06:46:18;40.17;;;19.17;;
65691;SDS011;52411;52.716;6.696;2023-10-09T06:48:49;38.08;;;19.17;;
65691;SDS011;52411;52.716;6.696;2023-10-09T06:57:29;35.95;;;17.65;;
65691;SDS011;52411;52.716;6.696;2023-10-09T07:00:14;34.28;;;17.50;;
65691;SDS011;52411;52.716;6.696;2023-10-09T07:06:28;31.25;;;16.45;;
65691;SDS011;52411;52.716;6.696;2023-10-09T07:09:02;34.03;;;16.92;;
65691;SDS011;52411;52.716;6.696;2023-10-09T07:11:34;36.17;;;15.45;;
65691;SDS011;52411;52.716;6.696;2023-10-09T07:16:59;31.30;;;14.80;;
65691;SDS011;52411;52.716;6.696;2023-10-09T07:19:30;28.83;;;15.35;;
65691;SDS011;52411;52.716;6.696;2023-10-09T07:21:59;37.38;;;14.57;;
65691;SDS011;52411;52.716;6.696;2023-10-09T07:24:41;25.65;;;13.80;;
65691;SDS011;52411;52.716;6.696;2023-10-09T07:27:14;30.85;;;14.45;;
65691;SDS011;52411;52.716;6.696;2023-10-09T07:29:42;29.17;;;14.55;;
65691;SDS011;52411;52.716;6.696;2023-10-09T07:32:14;26.05;;;13.70;;
65691;SDS011;52411;52.716;6.696;2023-10-09T07:34:48;25.50;;;13.13;;
65691;SDS011;52411;52.716;6.696;2023-10-09T07:37:25;26.13;;;13.35;;
65691;SDS011;52411;52.716;6.696;2023-10-09T07:39:56;27.77;;;13.25;;
65691;SDS011;52411;52.716;6.696;2023-10-09T07:42:22;27.95;;;12.93;;
65691;SDS011;52411;52.716;6.696;2023-10-09T07:45:08;27.48;;;12.93;;
65691;SDS011;52411;52.716;6.696;2023-10-09T07:47:43;21.75;;;11.90;;
65691;SDS011;52411;52.716;6.696;2023-10-09T07:50:37;26.98;;;12.00;;
65691;SDS011;52411;52.716;6.696;2023-10-09T07:53:06;24.17;;;11.02;;
65691;SDS011;52411;52.716;6.696;2023-10-09T07:55:51;24.35;;;10.65;;
65691;SDS011;52411;52.716;6.696;2023-10-09T07:58:23;24.95;;;11.93;;
65691;SDS011;52411;52.716;6.696;2023-10-09T08:00:56;22.70;;;11.00;;
65691;SDS011;52411;52.716;6.696;2023-10-09T08:03:35;25.98;;;11.32;;
65691;SDS011;52411;52.716;6.696;2023-10-09T08:06:01;25.10;;;11.23;;
65691;SDS011;52411;52.716;6.696;2023-10-09T08:08:46;27.60;;;11.45;;
65691;SDS011;52411;52.716;6.696;2023-10-09T08:11:26;22.70;;;11.17;;
65691;SDS011;52411;52.716;6.696;2023-10-09T08:14:10;22.52;;;11.60;;
65691;SDS011;52411;52.716;6.696;2023-10-09T08:16:55;22.33;;;10.68;;
65691;SDS011;52411;52.716;6.696;2023-10-09T08:19:39;21.88;;;10.80;;
65691;SDS011;52411;52.716;6.696;2023-10-09T08:22:24;23.00;;;11.77;;
65691;SDS011;52411;52.716;6.696;2023-10-09T08:24:51;21.30;;;11.63;;
65691;SDS011;52411;52.716;6.696;2023-10-09T08:27:21;25.52;;;12.02;;
65691;SDS011;52411;52.716;6.696;2023-10-09T08:29:56;24.17;;;11.93;;
65691;SDS011;52411;52.716;6.696;2023-10-09T08:32:42;23.23;;;11.95;;
65691;SDS011;52411;52.716;6.696;2023-10-09T08:35:08;21.40;;;11.88;;
65691;SDS011;52411;52.716;6.696;2023-10-09T08:37:53;26.98;;;11.65;;
65691;SDS011;52411;52.716;6.696;2023-10-09T08:40:19;26.38;;;11.55;;
65691;SDS011;52411;52.716;6.696;2023-10-09T08:42:55;25.92;;;11.75;;
65691;SDS011;52411;52.716;6.696;2023-10-09T08:45:34;23.30;;;11.73;;
65691;SDS011;52411;52.716;6.696;2023-10-09T08:48:04;24.57;;;11.53;;
65691;SDS011;52411;52.716;6.696;2023-10-09T08:50:33;23.55;;;11.25;;
65691;SDS011;52411;52.716;6.696;2023-10-09T08:53:01;28.27;;;11.75;;
65691;SDS011;52411;52.716;6.696;2023-10-09T08:55:30;22.80;;;11.52;;
65691;SDS011;52411;52.716;6.696;2023-10-09T08:57:55;18.85;;;10.70;;
65691;SDS011;52411;52.716;6.696;2023-10-09T09:00:23;22.60;;;10.60;;
65691;SDS011;52411;52.716;6.696;2023-10-09T09:02:55;20.15;;;10.40;;
65691;SDS011;52411;52.716;6.696;2023-10-09T09:05:20;23.48;;;9.82;;
65691;SDS011;52411;52.716;6.696;2023-10-09T09:07:46;22.55;;;10.02;;
65691;SDS011;52411;52.716;6.696;2023-10-09T09:10:13;22.35;;;10.00;;
65691;SDS011;52411;52.716;6.696;2023-10-09T09:12:48;17.30;;;9.57;;
65691;SDS011;52411;52.716;6.696;2023-10-09T09:15:26;18.33;;;10.00;;
65691;SDS011;52411;52.716;6.696;2023-10-09T09:18:02;19.27;;;9.98;;
65691;SDS011;52411;52.716;6.696;2023-10-09T09:20:31;21.20;;;9.90;;
65691;SDS011;52411;52.716;6.696;2023-10-09T09:23:02;19.45;;;9.98;;
65691;SDS011;52411;52.716;6.696;2023-10-09T09:25:47;19.55;;;9.95;;
65691;SDS011;52411;52.716;6.696;2023-10-09T09:28:22;19.90;;;9.60;;
65691;SDS011;52411;52.716;6.696;2023-10-09T09:30:48;20.15;;;9.68;;
65691;SDS011;52411;52.716;6.696;2023-10-09T09:33:38;19.93;;;9.77;;
65691;SDS011;52411;52.716;6.696;2023-10-09T09:36:08;23.55;;;10.50;;
65691;SDS011;52411;52.716;6.696;2023-10-09T10:04:42;20.40;;;10.75;;
65691;SDS011;52411;52.716;6.696;2023-10-09T10:07:09;22.65;;;10.60;;
65691;SDS011;52411;52.716;6.696;2023-10-09T10:27:17;22.23;;;9.73;;
65691;SDS011;52411;52.716;6.696;2023-10-09T10:30:34;22.77;;;9.25;;
65691;SDS011;52411;52.716;6.696;2023-10-09T10:35:16;22.52;;;8.82;;
65691;SDS011;52411;52.716;6.696;2023-10-09T10:37:45;17.65;;;8.75;;
65691;SDS011;52411;52.716;6.696;2023-10-09T10:40:26;21.92;;;8.88;;
65691;SDS011;52411;52.716;6.696;2023-10-09T10:43:17;20.63;;;8.65;;
65691;SDS011;52411;52.716;6.696;2023-10-09T10:46:05;22.88;;;8.98;;
65691;SDS011;52411;52.716;6.696;2023-10-09T10:48:51;19.60;;;8.80;;
65691;SDS011;52411;52.716;6.696;2023-10-09T10:51:27;21.45;;;8.73;;
65691;SDS011;52411;52.716;6.696;2023-10-09T10:54:08;17.60;;;8.30;;
65691;SDS011;52411;52.716;6.696;2023-10-09T10:56:55;18.23;;;8.50;;
65691;SDS011;52411;52.716;6.696;2023-10-09T10:59:23;18.25;;;7.72;;
65691;SDS011;52411;52.716;6.696;2023-10-09T11:01:50;16.42;;;7.28;;
65691;SDS011;52411;52.716;6.696;2023-10-09T11:04:28;20.92;;;7.93;;
65691;SDS011;52411;52.716;6.696;2023-10-09T11:06:57;15.43;;;7.20;;
65691;SDS011;52411;52.716;6.696;2023-10-09T11:09:54;18.27;;;7.85;;
65691;SDS011;52411;52.716;6.696;2023-10-09T11:12:50;17.77;;;7.78;;
65691;SDS011;52411;52.716;6.696;2023-10-09T11:15:30;17.85;;;7.93;;
65691;SDS011;52411;52.716;6.696;2023-10-09T11:18:09;19.73;;;7.55;;
65691;SDS011;52411;52.716;6.696;2023-10-09T11:20:45;15.50;;;7.68;;
65691;SDS011;52411;52.716;6.696;2023-10-09T11:23:40;19.00;;;7.57;;
65691;SDS011;52411;52.716;6.696;2023-10-09T11:26:16;17.27;;;7.57;;
65691;SDS011;52411;52.716;6.696;2023-10-09T11:29:05;13.00;;;7.13;;
65691;SDS011;52411;52.716;6.696;2023-10-09T11:31:38;18.52;;;7.25;;
65691;SDS011;52411;52.716;6.696;2023-10-09T11:34:08;17.10;;;7.75;;
65691;SDS011;52411;52.716;6.696;2023-10-09T11:36:54;13.73;;;6.68;;
65691;SDS011;52411;52.716;6.696;2023-10-09T11:39:30;19.42;;;7.07;;
65691;SDS011;52411;52.716;6.696;2023-10-09T11:44:38;20.15;;;7.07;;
65691;SDS011;52411;52.716;6.696;2023-10-09T11:47:10;17.35;;;7.75;;
65691;SDS011;52411;52.716;6.696;2023-10-09T11:52:21;15.35;;;6.95;;
65691;SDS011;52411;52.716;6.696;2023-10-09T11:54:57;14.38;;;6.88;;
65691;SDS011;52411;52.716;6.696;2023-10-09T11:57:24;18.88;;;7.43;;
65691;SDS011;52411;52.716;6.696;2023-10-09T11:59:59;18.60;;;7.80;;
65691;SDS011;52411;52.716;6.696;2023-10-09T12:02:25;17.20;;;7.13;;
65691;SDS011;52411;52.716;6.696;2023-10-09T12:04:51;16.77;;;6.85;;
65691;SDS011;52411;52.716;6.696;2023-10-09T12:07:16;14.98;;;6.85;;
65691;SDS011;52411;52.716;6.696;2023-10-09T12:09:45;10.05;;;6.20;;
65691;SDS011;52411;52.716;6.696;2023-10-09T12:12:13;13.55;;;5.53;;
65691;SDS011;52411;52.716;6.696;2023-10-09T12:14:38;13.05;;;6.20;;
65691;SDS011;52411;52.716;6.696;2023-10-09T12:17:05;14.80;;;6.20;;
65691;SDS011;52411;52.716;6.696;2023-10-09T12:19:37;11.65;;;5.75;;
65691;SDS011;52411;52.716;6.696;2023-10-09T12:22:07;15.82;;;6.28;;
65691;SDS011;52411;52.716;6.696;2023-10-09T12:24:41;12.23;;;6.07;;
65691;SDS011;52411;52.716;6.696;2023-10-09T12:27:08;13.70;;;5.90;;
65691;SDS011;52411;52.716;6.696;2023-10-09T12:29:36;13.57;;;6.03;;
65691;SDS011;52411;52.716;6.696;2023-10-09T12:32:02;14.68;;;6.10;;
65691;SDS011;52411;52.716;6.696;2023-10-09T12:34:28;12.60;;;5.80;;
65691;SDS011;52411;52.716;6.696;2023-10-09T12:36:58;13.10;;;5.63;;
65691;SDS011;52411;52.716;6.696;2023-10-09T12:41:58;10.10;;;5.20;;
65691;SDS011;52411;52.716;6.696;2023-10-09T12:44:31;10.27;;;5.38;;
65691;SDS011;52411;52.716;6.696;2023-10-09T12:47:04;10.60;;;6.00;;
65691;SDS011;52411;52.716;6.696;2023-10-09T12:49:31;12.82;;;5.45;;
65691;SDS011;52411;52.716;6.696;2023-10-09T12:51:57;10.05;;;5.55;;
65691;SDS011;52411;52.716;6.696;2023-10-09T12:54:26;11.70;;;5.30;;
65691;SDS011;52411;52.716;6.696;2023-10-09T12:56:52;12.98;;;4.95;;
65691;SDS011;52411;52.716;6.696;2023-10-09T12:59:21;10.18;;;4.70;;
65691;SDS011;52411;52.716;6.696;2023-10-09T13:01:48;10.05;;;4.95;;
65691;SDS011;52411;52.716;6.696;2023-10-09T13:04:17;12.10;;;4.70;;
65691;SDS011;52411;52.716;6.696;2023-10-09T13:06:47;10.32;;;4.20;;
65691;SDS011;52411;52.716;6.696;2023-10-09T13:09:16;8.35;;;4.20;;
65691;SDS011;52411;52.716;6.696;2023-10-09T13:11:58;8.63;;;3.38;;
65691;SDS011;52411;52.716;6.696;2023-10-09T13:14:25;8.73;;;3.20;;
65691;SDS011;52411;52.716;6.696;2023-10-09T13:16:59;10.07;;;3.55;;
65691;SDS011;52411;52.716;6.696;2023-10-09T13:19:27;8.40;;;3.13;;
65691;SDS011;52411;52.716;6.696;2023-10-09T13:21:52;8.38;;;3.38;;
65691;SDS011;52411;52.716;6.696;2023-10-09T13:24:19;8.60;;;3.42;;
65691;SDS011;52411;52.716;6.696;2023-10-09T13:26:49;5.85;;;2.78;;
65691;SDS011;52411;52.716;6.696;2023-10-09T13:29:23;8.85;;;3.38;;
65691;SDS011;52411;52.716;6.696;2023-10-09T13:31:48;6.30;;;2.88;;
65691;SDS011;52411;52.716;6.696;2023-10-09T13:34:17;6.57;;;2.83;;
65691;SDS011;52411;52.716;6.696;2023-10-09T13:36:43;7.07;;;2.95;;
65691;SDS011;52411;52.716;6.696;2023-10-09T13:39:17;9.02;;;3.35;;
65691;SDS011;52411;52.716;6.696;2023-10-09T13:41:50;8.63;;;3.15;;
65691;SDS011;52411;52.716;6.696;2023-10-09T13:44:30;9.43;;;3.55;;
65691;SDS011;52411;52.716;6.696;2023-10-09T13:46:57;8.15;;;3.38;;
65691;SDS011;52411;52.716;6.696;2023-10-09T13:49:25;8.35;;;3.65;;
65691;SDS011;52411;52.716;6.696;2023-10-09T13:51:57;10.25;;;3.38;;
65691;SDS011;52411;52.716;6.696;2023-10-09T13:54:26;11.68;;;3.50;;
65691;SDS011;52411;52.716;6.696;2023-10-09T13:57:02;9.63;;;3.60;;
65691;SDS011;52411;52.716;6.696;2023-10-09T13:59:34;10.88;;;3.47;;
65691;SDS011;52411;52.716;6.696;2023-10-09T14:02:01;9.68;;;3.20;;
65691;SDS011;52411;52.716;6.696;2023-10-09T14:04:28;6.78;;;3.00;;
65691;SDS011;52411;52.716;6.696;2023-10-09T14:06:54;8.73;;;3.00;;
65691;SDS011;52411;52.716;6.696;2023-10-09T14:09:24;9.00;;;3.25;;
65691;SDS011;52411;52.716;6.696;2023-10-09T14:11:55;6.32;;;2.90;;
65691;SDS011;52411;52.716;6.696;2023-10-09T14:14:41;8.05;;;3.13;;
65691;SDS011;52411;52.716;6.696;2023-10-09T14:17:14;8.30;;;2.83;;
65691;SDS011;52411;52.716;6.696;2023-10-09T14:19:46;7.72;;;3.03;;
65691;SDS011;52411;52.716;6.696;2023-10-09T14:22:13;4.95;;;2.65;;
65691;SDS011;52411;52.716;6.696;2023-10-09T14:24:46;6.78;;;2.63;;
65691;SDS011;52411;52.716;6.696;2023-10-09T14:27:13;8.25;;;3.28;;
65691;SDS011;52411;52.716;6.696;2023-10-09T14:29:45;7.47;;;3.28;;
65691;SDS011;52411;52.716;6.696;2023-10-09T14:32:14;10.32;;;3.20;;
65691;SDS011;52411;52.716;6.696;2023-10-09T14:34:40;8.13;;;3.00;;
65691;SDS011;52411;52.716;6.696;2023-10-09T14:37:15;7.82;;;3.25;;
65691;SDS011;52411;52.716;6.696;2023-10-09T14:39:41;7.28;;;3.28;;
65691;SDS011;52411;52.716;6.696;2023-10-09T14:42:07;8.70;;;3.47;;
65691;SDS011;52411;52.716;6.696;2023-10-09T14:44:36;12.70;;;4.18;;
65691;SDS011;52411;52.716;6.696;2023-10-09T14:47:05;11.02;;;3.85;;
65691;SDS011;52411;52.716;6.696;2023-10-09T14:49:32;12.68;;;4.15;;
65691;SDS011;52411;52.716;6.696;2023-10-09T14:52:08;9.98;;;4.05;;
65691;SDS011;52411;52.716;6.696;2023-10-09T14:54:35;10.77;;;4.10;;
65691;SDS011;52411;52.716;6.696;2023-10-09T14:57:01;12.70;;;4.35;;
65691;SDS011;52411;52.716;6.696;2023-10-09T14:59:34;8.65;;;4.13;;
65691;SDS011;52411;52.716;6.696;2023-10-09T15:02:00;10.70;;;4.38;;
65691;SDS011;52411;52.716;6.696;2023-10-09T15:04:26;11.00;;;4.38;;
65691;SDS011;52411;52.716;6.696;2023-10-09T15:06:52;17.65;;;5.18;;
65691;SDS011;52411;52.716;6.696;2023-10-09T15:09:18;13.48;;;4.57;;
65691;SDS011;52411;52.716;6.696;2023-10-09T15:11:53;13.70;;;4.70;;
65691;SDS011;52411;52.716;6.696;2023-10-09T15:14:19;8.45;;;4.35;;
65691;SDS011;52411;52.716;6.696;2023-10-09T15:16:45;12.73;;;4.10;;
65691;SDS011;52411;52.716;6.696;2023-10-09T15:19:15;13.30;;;4.28;;
65691;SDS011;52411;52.716;6.696;2023-10-09T15:21:41;11.35;;;3.97;;
65691;SDS011;52411;52.716;6.696;2023-10-09T15:24:11;12.63;;;4.38;;
65691;SDS011;52411;52.716;6.696;2023-10-09T15:26:47;10.02;;;4.25;;
65691;SDS011;52411;52.716;6.696;2023-10-09T15:29:26;16.25;;;4.53;;
65691;SDS011;52411;52.716;6.696;2023-10-09T15:31:57;10.07;;;4.50;;
65691;SDS011;52411;52.716;6.696;2023-10-09T15:34:29;10.85;;;4.50;;
65691;SDS011;52411;52.716;6.696;2023-10-09T15:37:00;11.02;;;4.03;;
65691;SDS011;52411;52.716;6.696;2023-10-09T15:39:25;9.85;;;4.15;;
65691;SDS011;52411;52.716;6.696;2023-10-09T15:41:51;17.90;;;4.10;;
65691;SDS011;52411;52.716;6.696;2023-10-09T15:44:17;12.00;;;4.50;;
65691;SDS011;52411;52.716;6.696;2023-10-09T15:46:42;8.82;;;4.00;;
65691;SDS011;52411;52.716;6.696;2023-10-09T15:49:13;11.32;;;4.32;;
65691;SDS011;52411;52.716;6.696;2023-10-09T15:51:40;10.20;;;4.50;;
65691;SDS011;52411;52.716;6.696;2023-10-09T15:54:06;9.82;;;4.43;;
65691;SDS011;52411;52.716;6.696;2023-10-09T15:56:35;13.55;;;4.85;;
65691;SDS011;52411;52.716;6.696;2023-10-09T15:59:04;10.32;;;4.50;;
65691;SDS011;52411;52.716;6.696;2023-10-09T16:01:30;12.52;;;4.00;;
65691;SDS011;52411;52.716;6.696;2023-10-09T16:03:56;10.73;;;4.50;;
65691;SDS011;52411;52.716;6.696;2023-10-09T16:06:22;15.15;;;4.32;;
65691;SDS011;52411;52.716;6.696;2023-10-09T16:08:52;8.80;;;3.87;;
65691;SDS011;52411;52.716;6.696;2023-10-09T16:11:18;11.05;;;4.00;;
65691;SDS011;52411;52.716;6.696;2023-10-09T16:13:50;12.57;;;4.18;;
65691;SDS011;52411;52.716;6.696;2023-10-09T16:16:26;10.75;;;4.18;;
65691;SDS011;52411;52.716;6.696;2023-10-09T16:18:53;9.50;;;4.10;;
65691;SDS011;52411;52.716;6.696;2023-10-09T16:21:20;12.98;;;4.15;;
65691;SDS011;52411;52.716;6.696;2023-10-09T16:23:52;10.02;;;4.80;;
65691;SDS011;52411;52.716;6.696;2023-10-09T16:26:19;7.20;;;3.60;;
65691;SDS011;52411;52.716;6.696;2023-10-09T16:28:49;13.17;;;4.07;;
65691;SDS011;52411;52.716;6.696;2023-10-09T16:31:17;10.05;;;3.95;;
65691;SDS011;52411;52.716;6.696;2023-10-09T16:33:48;13.88;;;3.70;;
65691;SDS011;52411;52.716;6.696;2023-10-09T16:36:14;15.27;;;4.05;;
65691;SDS011;52411;52.716;6.696;2023-10-09T16:38:40;9.70;;;3.83;;
65691;SDS011;52411;52.716;6.696;2023-10-09T16:41:06;11.93;;;4.20;;
65691;SDS011;52411;52.716;6.696;2023-10-09T16:43:35;10.02;;;4.13;;
65691;SDS011;52411;52.716;6.696;2023-10-09T16:46:02;12.07;;;3.90;;
65691;SDS011;52411;52.716;6.696;2023-10-09T16:48:33;8.77;;;3.55;;
65691;SDS011;52411;52.716;6.696;2023-10-09T16:51:02;12.65;;;4.15;;
65691;SDS011;52411;52.716;6.696;2023-10-09T16:56:02;8.18;;;3.78;;
65691;SDS011;52411;52.716;6.696;2023-10-09T16:58:34;9.65;;;3.70;;
65691;SDS011;52411;52.716;6.696;2023-10-09T17:01:00;13.25;;;4.07;;